sensor_id;sensor_type;location;lat;lon;timestamp;pressure;altitude;pressure_sealevel;temperature;humidity
69257;BME280;56376;53.356;-1.748;2023-04-07T00:01:03;99771.97;;;6.14;100.00
69257;BME280;56376;53.356;-1.748;2023-04-07T00:03:28;99772.03;;;6.11;100.00
69257;BME280;56376;53.356;-1.748;2023-04-07T00:05:53;99763.44;;;6.07;100.00
69257;BME280;56376;53.356;-1.748;2023-04-07T00:08:19;99779.91;;;6.03;100.00
69257;BME280;56376;53.356;-1.748;2023-04-07T00:10:44;99783.38;;;6.02;100.00
69257;BME280;56376;53.356;-1.748;2023-04-07T00:13:10;99772.19;;;6.00;100.00
69257;BME280;56376;53.356;-1.748;2023-04-07T00:15:35;99770.44;;;5.99;100.00
69257;BME280;56376;53.356;-1.748;2023-04-07T00:18:00;99775.69;;;5.93;100.00
69257;BME280;56376;53.356;-1.748;2023-04-07T00:20:26;99782.63;;;5.91;100.00
69257;BME280;56376;53.356;-1.748;2023-04-07T00:22:51;99778.34;;;5.89;100.00
69257;BME280;56376;53.356;-1.748;2023-04-07T00:25:17;99767.19;;;5.83;100.00
69257;BME280;56376;53.356;-1.748;2023-04-07T00:27:42;99769.81;;;5.80;100.00
69257;BME280;56376;53.356;-1.748;2023-04-07T00:30:08;99772.47;;;5.77;100.00
69257;BME280;56376;53.356;-1.748;2023-04-07T00:32:33;99778.53;;;5.75;100.00
69257;BME280;56376;53.356;-1.748;2023-04-07T00:34:59;99788.88;;;5.76;100.00
69257;BME280;56376;53.356;-1.748;2023-04-07T00:37:24;99788.09;;;5.70;100.00
69257;BME280;56376;53.356;-1.748;2023-04-07T00:39:50;99788.97;;;5.70;100.00
69257;BME280;56376;53.356;-1.748;2023-04-07T00:42:16;99795.88;;;5.68;100.00
69257;BME280;56376;53.356;-1.748;2023-04-07T00:44:42;99783.00;;;5.62;100.00
69257;BME280;56376;53.356;-1.748;2023-04-07T00:47:07;99787.34;;;5.60;100.00
69257;BME280;56376;53.356;-1.748;2023-04-07T00:49:33;99787.41;;;5.54;100.00
69257;BME280;56376;53.356;-1.748;2023-04-07T00:51:59;99793.50;;;5.51;100.00
69257;BME280;56376;53.356;-1.748;2023-04-07T00:54:25;99790.09;;;5.46;100.00
69257;BME280;56376;53.356;-1.748;2023-04-07T00:56:51;99797.06;;;5.42;100.00
69257;BME280;56376;53.356;-1.748;2023-04-07T00:59:17;99796.28;;;5.34;100.00
69257;BME280;56376;53.356;-1.748;2023-04-07T01:01:43;99788.56;;;5.28;100.00
69257;BME280;56376;53.356;-1.748;2023-04-07T01:04:26;99792.09;;;5.21;100.00
69257;BME280;56376;53.356;-1.748;2023-04-07T01:06:56;99791.22;;;5.20;100.00
69257;BME280;56376;53.356;-1.748;2023-04-07T01:09:28;99793.88;;;5.17;100.00
69257;BME280;56376;53.356;-1.748;2023-04-07T01:12:04;99804.25;;;5.11;100.00
69257;BME280;56376;53.356;-1.748;2023-04-07T01:14:36;99805.16;;;5.09;100.00
69257;BME280;56376;53.356;-1.748;2023-04-07T01:17:06;99806.94;;;5.04;100.00
69257;BME280;56376;53.356;-1.748;2023-04-07T01:22:07;99809.63;;;4.94;100.00
69257;BME280;56376;53.356;-1.748;2023-04-07T01:27:24;99820.03;;;4.87;100.00
69257;BME280;56376;53.356;-1.748;2023-04-07T01:30:00;99808.03;;;4.80;100.00
69257;BME280;56376;53.356;-1.748;2023-04-07T01:32:26;99807.19;;;4.73;100.00
69257;BME280;56376;53.356;-1.748;2023-04-07T01:34:54;99819.25;;;4.75;100.00
69257;BME280;56376;53.356;-1.748;2023-04-07T01:37:21;99814.09;;;4.77;100.00
69257;BME280;56376;53.356;-1.748;2023-04-07T01:39:47;99808.06;;;4.76;100.00
69257;BME280;56376;53.356;-1.748;2023-04-07T01:42:14;99804.59;;;4.74;100.00
69257;BME280;56376;53.356;-1.748;2023-04-07T01:44:40;99806.31;;;4.75;100.00
69257;BME280;56376;53.356;-1.748;2023-04-07T01:47:06;99808.91;;;4.77;100.00
69257;BME280;56376;53.356;-1.748;2023-04-07T01:49:32;99811.53;;;4.74;100.00
69257;BME280;56376;53.356;-1.748;2023-04-07T01:52:00;99805.47;;;4.76;100.00
69257;BME280;56376;53.356;-1.748;2023-04-07T01:54:27;99814.94;;;4.76;100.00
69257;BME280;56376;53.356;-1.748;2023-04-07T01:56:52;99821.00;;;4.73;100.00
69257;BME280;56376;53.356;-1.748;2023-04-07T01:59:18;99819.28;;;4.74;100.00
69257;BME280;56376;53.356;-1.748;2023-04-07T02:01:43;99823.59;;;4.72;100.00
69257;BME280;56376;53.356;-1.748;2023-04-07T02:04:26;99827.06;;;4.71;100.00
69257;BME280;56376;53.356;-1.748;2023-04-07T02:06:59;99822.78;;;4.67;100.00
69257;BME280;56376;53.356;-1.748;2023-04-07T02:09:28;99824.53;;;4.63;100.00
69257;BME280;56376;53.356;-1.748;2023-04-07T02:11:57;99825.41;;;4.61;100.00
69257;BME280;56376;53.356;-1.748;2023-04-07T02:14:24;99825.44;;;4.56;100.00
69257;BME280;56376;53.356;-1.748;2023-04-07T02:16:51;99824.59;;;4.51;100.00
69257;BME280;56376;53.356;-1.748;2023-04-07T02:19:17;99821.19;;;4.49;100.00
69257;BME280;56376;53.356;-1.748;2023-04-07T02:21:44;99801.38;;;4.45;100.00
69257;BME280;56376;53.356;-1.748;2023-04-07T02:24:10;99797.09;;;4.41;100.00
69257;BME280;56376;53.356;-1.748;2023-04-07T02:26:36;99801.41;;;4.42;100.00
69257;BME280;56376;53.356;-1.748;2023-04-07T02:29:03;99810.03;;;4.39;100.00
69257;BME280;56376;53.356;-1.748;2023-04-07T02:31:28;99815.22;;;4.38;100.00
69257;BME280;56376;53.356;-1.748;2023-04-07T02:33:54;99815.22;;;4.38;100.00
69257;BME280;56376;53.356;-1.748;2023-04-07T02:36:20;99816.09;;;4.37;100.00
69257;BME280;56376;53.356;-1.748;2023-04-07T02:38:45;99810.09;;;4.31;100.00
69257;BME280;56376;53.356;-1.748;2023-04-07T02:41:10;99820.44;;;4.31;100.00
69257;BME280;56376;53.356;-1.748;2023-04-07T02:43:36;99817.88;;;4.28;100.00
69257;BME280;56376;53.356;-1.748;2023-04-07T02:46:01;99820.47;;;4.25;100.00
69257;BME280;56376;53.356;-1.748;2023-04-07T02:48:26;99822.22;;;4.20;100.00
69257;BME280;56376;53.356;-1.748;2023-04-07T02:50:52;99812.78;;;4.16;100.00
69257;BME280;56376;53.356;-1.748;2023-04-07T02:53:17;99820.53;;;4.16;100.00
69257;BME280;56376;53.356;-1.748;2023-04-07T02:55:42;99816.22;;;4.15;100.00
69257;BME280;56376;53.356;-1.748;2023-04-07T02:58:08;99817.09;;;4.12;100.00
69257;BME280;56376;53.356;-1.748;2023-04-07T03:00:33;99820.53;;;4.15;100.00
69257;BME280;56376;53.356;-1.748;2023-04-07T03:02:59;99815.41;;;4.05;100.00
69257;BME280;56376;53.356;-1.748;2023-04-07T03:05:25;99819.75;;;3.97;100.00
69257;BME280;56376;53.356;-1.748;2023-04-07T03:07:51;99835.28;;;3.99;100.00
69257;BME280;56376;53.356;-1.748;2023-04-07T03:10:16;99832.69;;;3.93;100.00
69257;BME280;56376;53.356;-1.748;2023-04-07T03:12:42;99824.97;;;3.89;100.00
69257;BME280;56376;53.356;-1.748;2023-04-07T03:15:08;99819.78;;;3.88;100.00
69257;BME280;56376;53.356;-1.748;2023-04-07T03:17:33;99822.41;;;3.86;100.00
69257;BME280;56376;53.356;-1.748;2023-04-07T03:19:59;99822.41;;;3.83;100.00
69257;BME280;56376;53.356;-1.748;2023-04-07T03:22:25;99831.88;;;3.83;100.00
69257;BME280;56376;53.356;-1.748;2023-04-07T03:24:50;99837.06;;;3.80;100.00
69257;BME280;56376;53.356;-1.748;2023-04-07T03:27:15;99834.50;;;3.75;100.00
69257;BME280;56376;53.356;-1.748;2023-04-07T03:29:41;99832.78;;;3.74;100.00
69257;BME280;56376;53.356;-1.748;2023-04-07T03:32:07;99850.03;;;3.67;100.00
69257;BME280;56376;53.356;-1.748;2023-04-07T03:34:32;99831.09;;;3.64;100.00
69257;BME280;56376;53.356;-1.748;2023-04-07T03:36:58;99827.69;;;3.56;100.00
69257;BME280;56376;53.356;-1.748;2023-04-07T03:39:23;99838.88;;;3.52;100.00
69257;BME280;56376;53.356;-1.748;2023-04-07T03:41:49;99845.78;;;3.48;100.00
69257;BME280;56376;53.356;-1.748;2023-04-07T03:44:14;99842.34;;;3.44;100.00
69257;BME280;56376;53.356;-1.748;2023-04-07T03:46:39;99844.06;;;3.42;100.00
69257;BME280;56376;53.356;-1.748;2023-04-07T03:49:05;99848.38;;;3.37;100.00
69257;BME280;56376;53.356;-1.748;2023-04-07T03:51:31;99856.13;;;3.37;100.00
69257;BME280;56376;53.356;-1.748;2023-04-07T03:53:58;99849.25;;;3.33;100.00
69257;BME280;56376;53.356;-1.748;2023-04-07T03:56:23;99857.00;;;3.32;100.00
69257;BME280;56376;53.356;-1.748;2023-04-07T03:58:49;99857.00;;;3.27;100.00
69257;BME280;56376;53.356;-1.748;2023-04-07T04:01:14;99857.88;;;3.21;100.00
69257;BME280;56376;53.356;-1.748;2023-04-07T04:03:40;99854.44;;;3.18;100.00
69257;BME280;56376;53.356;-1.748;2023-04-07T04:06:05;99860.47;;;3.17;100.00
69257;BME280;56376;53.356;-1.748;2023-04-07T04:08:31;99857.03;;;3.12;100.00
69257;BME280;56376;53.356;-1.748;2023-04-07T04:10:56;99860.47;;;3.12;100.00
69257;BME280;56376;53.356;-1.748;2023-04-07T04:13:22;99863.91;;;3.10;100.00
69257;BME280;56376;53.356;-1.748;2023-04-07T04:15:47;99870.81;;;3.08;100.00
69257;BME280;56376;53.356;-1.748;2023-04-07T04:18:12;99872.53;;;3.06;100.00
69257;BME280;56376;53.356;-1.748;2023-04-07T04:20:38;99875.09;;;3.06;100.00
69257;BME280;56376;53.356;-1.748;2023-04-07T04:23:03;99881.97;;;3.02;100.00
69257;BME280;56376;53.356;-1.748;2023-04-07T04:25:29;99873.38;;;2.98;100.00
69257;BME280;56376;53.356;-1.748;2023-04-07T04:27:54;99875.13;;;2.95;100.00
69257;BME280;56376;53.356;-1.748;2023-04-07T04:30:20;99880.25;;;2.92;100.00
69257;BME280;56376;53.356;-1.748;2023-04-07T04:32:45;99890.56;;;2.87;100.00
69257;BME280;56376;53.356;-1.748;2023-04-07T04:35:11;99888.88;;;2.83;100.00
69257;BME280;56376;53.356;-1.748;2023-04-07T04:37:36;99899.16;;;2.81;100.00
69257;BME280;56376;53.356;-1.748;2023-04-07T04:40:02;99895.72;;;2.78;100.00
69257;BME280;56376;53.356;-1.748;2023-04-07T04:42:28;99893.16;;;2.76;100.00
69257;BME280;56376;53.356;-1.748;2023-04-07T04:44:55;99896.56;;;2.74;100.00
69257;BME280;56376;53.356;-1.748;2023-04-07T04:47:21;99894.00;;;2.74;100.00
69257;BME280;56376;53.356;-1.748;2023-04-07T04:49:46;99888.84;;;2.75;100.00
69257;BME280;56376;53.356;-1.748;2023-04-07T04:52:11;99887.13;;;2.70;100.00
69257;BME280;56376;53.356;-1.748;2023-04-07T04:54:37;99889.72;;;2.70;100.00
69257;BME280;56376;53.356;-1.748;2023-04-07T04:57:02;99889.69;;;2.68;100.00
69257;BME280;56376;53.356;-1.748;2023-04-07T04:59:28;99893.16;;;2.70;100.00
69257;BME280;56376;53.356;-1.748;2023-04-07T05:01:53;99886.25;;;2.71;100.00
69257;BME280;56376;53.356;-1.748;2023-04-07T05:04:18;99894.84;;;2.67;100.00
69257;BME280;56376;53.356;-1.748;2023-04-07T05:06:44;99896.56;;;2.63;100.00
69257;BME280;56376;53.356;-1.748;2023-04-07T05:09:09;99894.81;;;2.54;100.00
69257;BME280;56376;53.356;-1.748;2023-04-07T05:11:35;99904.28;;;2.54;100.00
69257;BME280;56376;53.356;-1.748;2023-04-07T05:14:00;99899.97;;;2.47;100.00
69257;BME280;56376;53.356;-1.748;2023-04-07T05:16:26;99905.97;;;2.41;100.00
69257;BME280;56376;53.356;-1.748;2023-04-07T05:18:51;99910.28;;;2.37;100.00
69257;BME280;56376;53.356;-1.748;2023-04-07T05:21:16;99914.56;;;2.35;100.00
69257;BME280;56376;53.356;-1.748;2023-04-07T05:23:44;99913.69;;;2.32;100.00
69257;BME280;56376;53.356;-1.748;2023-04-07T05:26:10;99922.25;;;2.31;100.00
69257;BME280;56376;53.356;-1.748;2023-04-07T05:28:35;99927.41;;;2.28;100.00
69257;BME280;56376;53.356;-1.748;2023-04-07T05:31:01;99927.38;;;2.22;100.00
69257;BME280;56376;53.356;-1.748;2023-04-07T05:33:26;99929.13;;;2.23;100.00
69257;BME280;56376;53.356;-1.748;2023-04-07T05:35:52;99928.25;;;2.24;100.00
69257;BME280;56376;53.356;-1.748;2023-04-07T05:38:17;99926.53;;;2.23;100.00
69257;BME280;56376;53.356;-1.748;2023-04-07T05:40:42;99931.69;;;2.26;100.00
69257;BME280;56376;53.356;-1.748;2023-04-07T05:43:08;99936.84;;;2.26;100.00
69257;BME280;56376;53.356;-1.748;2023-04-07T05:45:33;99935.13;;;2.26;100.00
69257;BME280;56376;53.356;-1.748;2023-04-07T05:47:58;99941.13;;;2.24;100.00
69257;BME280;56376;53.356;-1.748;2023-04-07T05:50:24;99941.13;;;2.21;100.00
69257;BME280;56376;53.356;-1.748;2023-04-07T05:52:49;99946.28;;;2.21;100.00
69257;BME280;56376;53.356;-1.748;2023-04-07T05:55:15;99948.00;;;2.17;100.00
69257;BME280;56376;53.356;-1.748;2023-04-07T05:57:40;99944.56;;;2.15;100.00
69257;BME280;56376;53.356;-1.748;2023-04-07T06:00:07;99942.81;;;2.14;100.00
69257;BME280;56376;53.356;-1.748;2023-04-07T06:02:33;99952.28;;;2.18;100.00
69257;BME280;56376;53.356;-1.748;2023-04-07T06:04:59;99961.75;;;2.21;100.00
69257;BME280;56376;53.356;-1.748;2023-04-07T06:07:24;99959.19;;;2.24;100.00
69257;BME280;56376;53.356;-1.748;2023-04-07T06:09:49;99963.50;;;2.26;100.00
69257;BME280;56376;53.356;-1.748;2023-04-07T06:12:15;99959.19;;;2.27;100.00
69257;BME280;56376;53.356;-1.748;2023-04-07T06:14:41;99961.75;;;2.27;100.00
69257;BME280;56376;53.356;-1.748;2023-04-07T06:17:06;99965.22;;;2.26;100.00
69257;BME280;56376;53.356;-1.748;2023-04-07T06:19:32;99963.53;;;2.29;100.00
69257;BME280;56376;53.356;-1.748;2023-04-07T06:21:57;99979.88;;;2.34;100.00
69257;BME280;56376;53.356;-1.748;2023-04-07T06:24:22;99968.72;;;2.37;100.00
69257;BME280;56376;53.356;-1.748;2023-04-07T06:26:50;99968.72;;;2.43;100.00
69257;BME280;56376;53.356;-1.748;2023-04-07T06:29:16;99971.31;;;2.49;100.00
69257;BME280;56376;53.356;-1.748;2023-04-07T06:31:41;99979.06;;;2.57;100.00
69257;BME280;56376;53.356;-1.748;2023-04-07T06:34:07;99985.13;;;2.65;100.00
69257;BME280;56376;53.356;-1.748;2023-04-07T06:36:32;99991.16;;;2.72;100.00
69257;BME280;56376;53.356;-1.748;2023-04-07T06:38:59;99998.06;;;2.76;100.00
69257;BME280;56376;53.356;-1.748;2023-04-07T06:41:24;99990.34;;;2.77;100.00
69257;BME280;56376;53.356;-1.748;2023-04-07T06:43:49;99993.78;;;2.83;100.00
69257;BME280;56376;53.356;-1.748;2023-04-07T06:46:16;99987.75;;;2.87;100.00
69257;BME280;56376;53.356;-1.748;2023-04-07T06:48:41;100000.69;;;3.00;100.00
69257;BME280;56376;53.356;-1.748;2023-04-07T06:51:07;99989.50;;;3.12;100.00
69257;BME280;56376;53.356;-1.748;2023-04-07T06:53:32;99998.16;;;3.23;100.00
69257;BME280;56376;53.356;-1.748;2023-04-07T06:56:08;99996.44;;;3.36;100.00
69257;BME280;56376;53.356;-1.748;2023-04-07T06:58:34;99993.84;;;3.50;100.00
69257;BME280;56376;53.356;-1.748;2023-04-07T07:01:00;100003.31;;;3.65;100.00
69257;BME280;56376;53.356;-1.748;2023-04-07T07:03:27;100001.59;;;3.76;100.00
69257;BME280;56376;53.356;-1.748;2023-04-07T07:05:56;100001.56;;;3.92;100.00
69257;BME280;56376;53.356;-1.748;2023-04-07T07:08:22;100002.41;;;4.04;100.00
69257;BME280;56376;53.356;-1.748;2023-04-07T07:10:48;100004.97;;;4.21;100.00
69257;BME280;56376;53.356;-1.748;2023-04-07T07:13:13;99999.72;;;4.38;100.00
69257;BME280;56376;53.356;-1.748;2023-04-07T07:15:39;100000.53;;;4.59;100.00
69257;BME280;56376;53.356;-1.748;2023-04-07T07:18:04;99999.53;;;4.84;100.00
69257;BME280;56376;53.356;-1.748;2023-04-07T07:20:29;99999.38;;;5.07;100.00
69257;BME280;56376;53.356;-1.748;2023-04-07T07:22:55;99989.72;;;5.31;100.00
69257;BME280;56376;53.356;-1.748;2023-04-07T07:25:21;99993.00;;;5.53;100.00
69257;BME280;56376;53.356;-1.748;2023-04-07T07:27:46;99992.78;;;5.74;100.00
69257;BME280;56376;53.356;-1.748;2023-04-07T07:30:12;99989.16;;;5.97;100.00
69257;BME280;56376;53.356;-1.748;2023-04-07T07:32:37;100004.50;;;6.18;100.00
69257;BME280;56376;53.356;-1.748;2023-04-07T07:35:03;100007.75;;;6.37;97.70
69257;BME280;56376;53.356;-1.748;2023-04-07T07:37:28;100011.03;;;6.53;96.25
69257;BME280;56376;53.356;-1.748;2023-04-07T07:39:53;100003.16;;;6.61;95.09
69257;BME280;56376;53.356;-1.748;2023-04-07T07:42:20;100002.16;;;6.71;95.28
69257;BME280;56376;53.356;-1.748;2023-04-07T07:44:45;100012.25;;;6.92;95.21
69257;BME280;56376;53.356;-1.748;2023-04-07T07:47:11;100005.03;;;7.13;94.14
69257;BME280;56376;53.356;-1.748;2023-04-07T07:49:36;100009.97;;;7.30;91.46
69257;BME280;56376;53.356;-1.748;2023-04-07T07:52:02;100001.94;;;7.45;91.05
69257;BME280;56376;53.356;-1.748;2023-04-07T07:54:27;100009.47;;;7.62;90.88
69257;BME280;56376;53.356;-1.748;2023-04-07T07:56:53;100011.81;;;7.77;90.91
69257;BME280;56376;53.356;-1.748;2023-04-07T07:59:18;100012.44;;;7.92;87.59
69257;BME280;56376;53.356;-1.748;2023-04-07T08:01:43;100003.53;;;8.03;85.90
69257;BME280;56376;53.356;-1.748;2023-04-07T08:04:09;99996.41;;;8.15;84.57
69257;BME280;56376;53.356;-1.748;2023-04-07T08:06:35;100002.94;;;8.36;83.02
69257;BME280;56376;53.356;-1.748;2023-04-07T08:09:01;99993.00;;;8.56;80.94
69257;BME280;56376;53.356;-1.748;2023-04-07T08:11:27;100001.47;;;8.68;79.59
69257;BME280;56376;53.356;-1.748;2023-04-07T08:13:52;99998.53;;;8.83;80.96
69257;BME280;56376;53.356;-1.748;2023-04-07T08:16:18;99995.59;;;8.98;79.79
69257;BME280;56376;53.356;-1.748;2023-04-07T08:18:44;100002.09;;;9.18;78.89
69257;BME280;56376;53.356;-1.748;2023-04-07T08:21:10;100000.91;;;9.31;78.36
69257;BME280;56376;53.356;-1.748;2023-04-07T08:23:37;100004.06;;;9.45;77.76
69257;BME280;56376;53.356;-1.748;2023-04-07T08:26:02;100008.97;;;9.58;76.69
69257;BME280;56376;53.356;-1.748;2023-04-07T08:28:27;100003.44;;;9.70;75.35
69257;BME280;56376;53.356;-1.748;2023-04-07T08:30:53;100008.41;;;9.81;74.85
69257;BME280;56376;53.356;-1.748;2023-04-07T08:33:18;100006.31;;;9.93;73.66
69257;BME280;56376;53.356;-1.748;2023-04-07T08:35:44;100009.50;;;10.05;71.44
69257;BME280;56376;53.356;-1.748;2023-04-07T08:38:09;99999.56;;;10.19;74.36
69257;BME280;56376;53.356;-1.748;2023-04-07T08:40:34;100007.91;;;10.33;74.73
69257;BME280;56376;53.356;-1.748;2023-04-07T08:43:07;100010.97;;;10.48;74.60
69257;BME280;56376;53.356;-1.748;2023-04-07T08:45:32;100006.25;;;10.60;72.86
69257;BME280;56376;53.356;-1.748;2023-04-07T08:47:59;100004.94;;;10.75;70.50
69257;BME280;56376;53.356;-1.748;2023-04-07T08:50:29;100008.22;;;10.83;68.62
69257;BME280;56376;53.356;-1.748;2023-04-07T08:52:56;100004.41;;;10.94;69.17
69257;BME280;56376;53.356;-1.748;2023-04-07T08:55:23;99998.00;;;11.04;68.66
69257;BME280;56376;53.356;-1.748;2023-04-07T08:57:51;100006.25;;;11.18;68.34
69257;BME280;56376;53.356;-1.748;2023-04-07T09:00:17;100005.94;;;11.29;66.92
69257;BME280;56376;53.356;-1.748;2023-04-07T09:02:44;99999.59;;;11.36;67.02
69257;BME280;56376;53.356;-1.748;2023-04-07T09:05:10;100006.19;;;11.48;66.68
69257;BME280;56376;53.356;-1.748;2023-04-07T09:07:37;100004.03;;;11.61;66.69
69257;BME280;56376;53.356;-1.748;2023-04-07T09:10:06;100003.59;;;11.75;66.09
69257;BME280;56376;53.356;-1.748;2023-04-07T09:12:32;100001.38;;;11.89;67.39
69257;BME280;56376;53.356;-1.748;2023-04-07T09:14:59;100004.50;;;12.00;67.30
69257;BME280;56376;53.356;-1.748;2023-04-07T09:17:27;100005.84;;;12.12;69.01
69257;BME280;56376;53.356;-1.748;2023-04-07T09:19:55;100007.16;;;12.24;67.91
69257;BME280;56376;53.356;-1.748;2023-04-07T09:22:35;100009.44;;;12.33;66.15
69257;BME280;56376;53.356;-1.748;2023-04-07T09:25:16;100008.50;;;12.36;63.82
69257;BME280;56376;53.356;-1.748;2023-04-07T09:28:01;100012.06;;;12.33;63.08
69257;BME280;56376;53.356;-1.748;2023-04-07T09:30:28;100004.13;;;12.34;63.57
69257;BME280;56376;53.356;-1.748;2023-04-07T09:32:54;100017.44;;;12.30;62.11
69257;BME280;56376;53.356;-1.748;2023-04-07T09:35:20;100009.66;;;12.27;62.71
69257;BME280;56376;53.356;-1.748;2023-04-07T09:38:06;100012.34;;;12.25;63.03
69257;BME280;56376;53.356;-1.748;2023-04-07T09:40:33;100009.16;;;12.17;61.69
69257;BME280;56376;53.356;-1.748;2023-04-07T09:42:58;100009.34;;;12.11;61.60
69257;BME280;56376;53.356;-1.748;2023-04-07T09:45:28;100021.09;;;12.24;61.70
69257;BME280;56376;53.356;-1.748;2023-04-07T09:47:54;100008.91;;;12.48;61.55
69257;BME280;56376;53.356;-1.748;2023-04-07T09:50:38;100007.75;;;12.79;60.45
69257;BME280;56376;53.356;-1.748;2023-04-07T09:53:04;100014.50;;;13.08;58.00
69257;BME280;56376;53.356;-1.748;2023-04-07T09:55:30;100013.72;;;13.06;57.49
69257;BME280;56376;53.356;-1.748;2023-04-07T09:57:56;100014.56;;;13.07;58.45
69257;BME280;56376;53.356;-1.748;2023-04-07T10:00:22;100014.56;;;13.07;60.03
69257;BME280;56376;53.356;-1.748;2023-04-07T10:02:48;100001.91;;;13.18;59.74
69257;BME280;56376;53.356;-1.748;2023-04-07T10:05:18;99998.50;;;13.38;58.25
69257;BME280;56376;53.356;-1.748;2023-04-07T10:07:45;100001.22;;;13.57;57.96
69257;BME280;56376;53.356;-1.748;2023-04-07T10:10:12;99998.75;;;13.74;57.02
69257;BME280;56376;53.356;-1.748;2023-04-07T10:12:37;100003.03;;;13.77;55.73
69257;BME280;56376;53.356;-1.748;2023-04-07T10:15:03;100002.38;;;13.72;55.74
69257;BME280;56376;53.356;-1.748;2023-04-07T10:17:30;100006.28;;;13.61;55.89
69257;BME280;56376;53.356;-1.748;2023-04-07T10:20:00;99999.94;;;13.45;56.37
69257;BME280;56376;53.356;-1.748;2023-04-07T10:22:26;99995.19;;;13.33;56.94
69257;BME280;56376;53.356;-1.748;2023-04-07T10:24:59;100000.78;;;13.24;56.83
69257;BME280;56376;53.356;-1.748;2023-04-07T10:27:30;100000.19;;;13.17;56.47
69257;BME280;56376;53.356;-1.748;2023-04-07T10:29:57;99994.38;;;13.09;56.96
69257;BME280;56376;53.356;-1.748;2023-04-07T10:32:23;99993.75;;;13.02;56.35
69257;BME280;56376;53.356;-1.748;2023-04-07T10:37:21;99998.91;;;12.82;60.70
69257;BME280;56376;53.356;-1.748;2023-04-07T10:39:51;99994.59;;;12.81;58.99
69257;BME280;56376;53.356;-1.748;2023-04-07T10:45:05;99994.97;;;12.93;59.79
69257;BME280;56376;53.356;-1.748;2023-04-07T10:47:31;99983.44;;;12.97;58.56
69257;BME280;56376;53.356;-1.748;2023-04-07T10:52:42;99984.44;;;13.17;60.42
69257;BME280;56376;53.356;-1.748;2023-04-07T11:03:22;99991.97;;;13.48;57.41
69257;BME280;56376;53.356;-1.748;2023-04-07T11:05:48;99990.91;;;13.52;58.08
69257;BME280;56376;53.356;-1.748;2023-04-07T11:08:13;99985.63;;;13.54;58.83
69257;BME280;56376;53.356;-1.748;2023-04-07T11:10:38;99989.81;;;13.58;57.74
69257;BME280;56376;53.356;-1.748;2023-04-07T11:13:07;99986.53;;;13.73;57.29
69257;BME280;56376;53.356;-1.748;2023-04-07T11:15:34;99988.66;;;13.85;56.58
69257;BME280;56376;53.356;-1.748;2023-04-07T11:18:12;99988.78;;;14.03;56.33
69257;BME280;56376;53.356;-1.748;2023-04-07T11:20:55;99993.47;;;14.17;55.09
69257;BME280;56376;53.356;-1.748;2023-04-07T11:23:24;99990.53;;;14.23;56.11
69257;BME280;56376;53.356;-1.748;2023-04-07T11:25:53;99981.53;;;14.28;56.20
69257;BME280;56376;53.356;-1.748;2023-04-07T11:28:23;99995.91;;;14.40;56.57
69257;BME280;56376;53.356;-1.748;2023-04-07T11:30:52;99981.13;;;14.38;55.30
69257;BME280;56376;53.356;-1.748;2023-04-07T11:33:19;99988.31;;;14.34;52.28
69257;BME280;56376;53.356;-1.748;2023-04-07T11:35:55;99989.31;;;14.32;52.55
69257;BME280;56376;53.356;-1.748;2023-04-07T11:38:23;99989.94;;;14.37;51.72
69257;BME280;56376;53.356;-1.748;2023-04-07T11:40:49;99982.56;;;14.45;51.99
69257;BME280;56376;53.356;-1.748;2023-04-07T11:43:22;99984.91;;;14.51;50.99
69257;BME280;56376;53.356;-1.748;2023-04-07T11:46:05;99987.38;;;14.56;51.64
69257;BME280;56376;53.356;-1.748;2023-04-07T11:48:32;99992.13;;;14.66;51.77
69257;BME280;56376;53.356;-1.748;2023-04-07T11:50:59;99988.03;;;14.80;52.12
69257;BME280;56376;53.356;-1.748;2023-04-07T11:53:29;99984.75;;;14.93;51.50
69257;BME280;56376;53.356;-1.748;2023-04-07T11:56:06;99980.47;;;14.91;50.57
69257;BME280;56376;53.356;-1.748;2023-04-07T11:58:34;99984.53;;;14.98;50.96
69257;BME280;56376;53.356;-1.748;2023-04-07T12:01:01;99976.28;;;15.06;50.89
69257;BME280;56376;53.356;-1.748;2023-04-07T12:03:36;99988.06;;;15.16;51.29
69257;BME280;56376;53.356;-1.748;2023-04-07T12:06:03;99983.00;;;15.30;50.64
69257;BME280;56376;53.356;-1.748;2023-04-07T12:11:04;99984.22;;;15.23;49.24
69257;BME280;56376;53.356;-1.748;2023-04-07T12:13:29;99984.06;;;15.26;48.69
69257;BME280;56376;53.356;-1.748;2023-04-07T12:15:55;99976.16;;;15.26;48.97
69257;BME280;56376;53.356;-1.748;2023-04-07T12:18:22;99982.91;;;15.32;48.76
69257;BME280;56376;53.356;-1.748;2023-04-07T12:20:49;99982.69;;;15.36;48.62
69257;BME280;56376;53.356;-1.748;2023-04-07T12:23:14;99984.19;;;15.42;48.13
69257;BME280;56376;53.356;-1.748;2023-04-07T12:25:40;99984.94;;;15.44;48.55
69257;BME280;56376;53.356;-1.748;2023-04-07T12:28:06;99991.94;;;15.26;48.99
69257;BME280;56376;53.356;-1.748;2023-04-07T12:30:31;99985.88;;;15.07;49.58
69257;BME280;56376;53.356;-1.748;2023-04-07T12:32:57;99974.00;;;14.98;49.88
69257;BME280;56376;53.356;-1.748;2023-04-07T12:35:22;99972.72;;;15.07;50.93
69257;BME280;56376;53.356;-1.748;2023-04-07T12:37:48;99970.38;;;15.20;51.47
69257;BME280;56376;53.356;-1.748;2023-04-07T12:40:13;99976.88;;;15.30;49.79
69257;BME280;56376;53.356;-1.748;2023-04-07T12:42:40;99976.41;;;15.39;49.05
69257;BME280;56376;53.356;-1.748;2023-04-07T12:45:06;99965.50;;;15.47;49.83
69257;BME280;56376;53.356;-1.748;2023-04-07T12:47:32;99975.38;;;15.61;47.92
69257;BME280;56376;53.356;-1.748;2023-04-07T12:49:58;99975.03;;;15.67;45.50
69257;BME280;56376;53.356;-1.748;2023-04-07T12:52:24;99974.69;;;15.74;46.74
69257;BME280;56376;53.356;-1.748;2023-04-07T12:54:49;99973.69;;;15.77;46.16
69257;BME280;56376;53.356;-1.748;2023-04-07T12:57:15;99970.13;;;15.78;44.95
69257;BME280;56376;53.356;-1.748;2023-04-07T12:59:40;99966.25;;;15.85;44.73
69257;BME280;56376;53.356;-1.748;2023-04-07T13:02:07;99965.78;;;15.94;43.60
69257;BME280;56376;53.356;-1.748;2023-04-07T13:04:32;99964.28;;;16.06;46.10
69257;BME280;56376;53.356;-1.748;2023-04-07T13:06:59;99963.25;;;16.26;45.25
69257;BME280;56376;53.356;-1.748;2023-04-07T13:09:27;99968.75;;;16.21;45.23